METAR Data
IDs: Format: Raw Decoded Include TAF

Data at: 0514 UTC 24 Sep 2018

KHIB 240453Z AUTO 11009G17KT 10SM OVC004 07/07 A3002 RMK AO2 RAB10E39 SLP176 P0000 T00720067
KHIB 240451Z AUTO 11011G17KT 10SM OVC004 07/07 A3002 RMK AO2 RAB10E39 P0000
KHIB 240353Z AUTO 11010KT 9SM OVC003 06/06 A3005 RMK AO2 SLP185 T00610061
KHIB 240253Z AUTO 12012G19KT 8SM OVC003 06/06 A3005 RMK AO2 RAB12E22 SLP189 P0000 60000 T00610056 56005
KHIB 240228Z AUTO 11015G20KT 7SM OVC004 06/05 A3006 RMK AO2 RAB12E22 P0000 T00560050
KHIB 240153Z AUTO 11012G23KT 10SM OVC005 06/05 A3006 RMK AO2 PK WND 12027/0058 SLP192 T00610050
KHIB 240053Z AUTO 10019G27KT 10SM OVC006 06/04 A3006 RMK AO2 PK WND 10027/0052 SLP190 T00610044
KHIB 232353Z AUTO 10015G24KT 10SM OVC009 06/04 A3007 RMK AO2 SLP194 T00610044 10078 20061 58013
KHIB 232327Z AUTO 10013G22KT 10SM OVC009 07/04 A3008 RMK AO2 T00670044
KHIB 232253Z AUTO 11012KT 10SM OVC010 07/04 A3009 RMK AO2 SLP202 T00670044
KHIB 232153Z AUTO 10014G21KT 10SM OVC013 07/04 A3009 RMK AO2 SLP201 T00720044
KHIB 232053Z AUTO 11012G22KT 10SM OVC014 08/04 A3011 RMK AO2 SLP206 T00780044 56017
KHIB 231953Z AUTO 11013G22KT 10SM OVC013 08/04 A3013 RMK AO2 SLP213 T00780044
KHIB 231853Z AUTO 11018G24KT 10SM OVC013 08/04 A3014 RMK AO2 SLP217 T00780039
KHIB 231753Z AUTO 10014KT 10SM OVC014 08/04 A3016 RMK AO2 SLP224 T00780044 10078 20061 58005
KHIB 231653Z AUTO 11013G21KT 10SM OVC013 07/04 A3017 RMK AO2 SLP228 T00720039
KHIB 231553Z AUTO 10008G21KT 10SM OVC013 07/04 A3019 RMK AO2 SLP232 T00670039
KHIB 231453Z AUTO 10012G17KT 10SM OVC011 07/04 A3018 RMK AO2 SLP229 T00670044 53022
KHIB 231445Z AUTO 10010G19KT 10SM OVC011 07/04 A3017 RMK AO2 CIG 009V014 T00670044
KHIB 231353Z AUTO 10011G20KT 10SM OVC007 06/05 A3015 RMK AO2 SLP220 T00610050
KHIB 231253Z AUTO 11009G19KT 10SM OVC007 07/05 A3013 RMK AO2 SLP215 T00670050
KHIB 231153Z AUTO 11009G20KT 10SM OVC007 07/06 A3011 RMK AO2 SLP204 T00670056 10083 20067 53001
KHIB 231053Z AUTO 10012KT 10SM OVC007 07/06 A3011 RMK AO2 SLP203 T00720061
KHIB 230953Z AUTO 13013KT 10SM OVC008 08/07 A3010 RMK AO2 SLP201 T00830067
KHIB 230853Z AUTO 08007KT 10SM OVC009 08/06 A3011 RMK AO2 SLP202 T00780061 53003
KHIB 230841Z AUTO 08006KT 10SM OVC009 08/06 A3011 RMK AO2 T00780061
KHIB 230753Z AUTO 03006KT 10SM BKN011 OVC060 07/06 A3010 RMK AO2 SLP201 T00720056
KHIB 230746Z AUTO 02006KT 10SM BKN011 OVC060 07/06 A3010 RMK AO2 T00720056
KHIB 230653Z AUTO 06005KT 10SM OVC060 08/06 A3009 RMK AO2 SLP198 T00780056
KHIB 230616Z AUTO 08008KT 10SM FEW009 OVC055 08/06 A3010 RMK AO2 T00780056
KHIB 230553Z AUTO 05009KT 10SM OVC009 08/06 A3010 RMK AO2 SLP200 T00830061 10117 20083 401391028 53008
KHIB 230521Z AUTO 03007KT 10SM BKN009 BKN050 OVC060 09/08 A3010 RMK AO2 T00940078
KHIB 230510Z AUTO 02008KT 10SM SCT009 BKN050 OVC060 09/08 A3009 RMK AO2 T00940078
KHIB 230453Z AUTO 03006KT 10SM SCT050 OVC060 10/08 A3009 RMK AO2 SLP197 T01000078
KHIB 230353Z AUTO 03006KT 10SM OVC060 11/07 A3008 RMK AO2 SLP194 T01060072
KHIB 230253Z AUTO 13004KT 10SM OVC050 10/08 A3007 RMK AO2 SLP194 T01000078 50005
KHIB 230153Z AUTO 00000KT 10SM OVC050 10/09 A3008 RMK AO2 SLP196 T01000089
KHIB 230053Z AUTO 00000KT 10SM OVC050 10/08 A3007 RMK AO2 SLP197 T01000083
KHIB 222353Z AUTO 00000KT 10SM FEW050 12/06 A3006 RMK AO2 SLP192 T01170061 10139 20117 55002
KHIB 222253Z AUTO 30003KT 10SM CLR 13/08 A3005 RMK AO2 SLP187 T01330078
KHIB 222153Z AUTO VRB03KT 10SM FEW070 14/06 A3005 RMK AO2 SLP190 T01390056
KHIB 222053Z AUTO VRB04G15KT 10SM OVC075 14/06 A3006 RMK AO2 SLP193 T01390056 58023
KHIB 221953Z AUTO VRB06KT 10SM OVC080 14/06 A3009 RMK AO2 SLP202 T01390056
KHIB 221853Z AUTO 20006KT 10SM BKN080 13/05 A3011 RMK AO2 SLP209 T01330050
KHIB 221753Z AUTO 22007G15KT 190V270 10SM OVC085 13/05 A3013 RMK AO2 SLP217 I6001 T01280050 10128 21011 58024